createdAt,value
2023-04-03T00:01:49.327Z,99.90
2023-04-03T00:04:16.832Z,99.90
2023-04-03T00:06:44.408Z,99.90
2023-04-03T00:09:11.937Z,99.90
2023-04-03T00:11:39.470Z,99.90
2023-04-03T00:14:07.035Z,99.90
2023-04-03T00:16:34.625Z,99.90
2023-04-03T00:19:02.122Z,99.90
2023-04-03T00:21:29.688Z,99.90
2023-04-03T00:23:57.224Z,99.90
2023-04-03T00:26:24.747Z,99.90
2023-04-03T00:28:52.310Z,99.90
2023-04-03T00:31:19.907Z,99.90
2023-04-03T00:33:47.361Z,99.90
2023-04-03T00:36:15.074Z,99.90
2023-04-03T00:38:42.460Z,99.90
2023-04-03T00:41:09.990Z,99.90
2023-04-03T00:43:37.557Z,99.90
2023-04-03T00:46:05.165Z,99.90
2023-04-03T00:48:35.482Z,99.90
2023-04-03T00:51:03.079Z,99.90
2023-04-03T00:53:57.572Z,99.90
2023-04-03T00:56:25.123Z,99.90
2023-04-03T00:59:01.168Z,99.90
2023-04-03T01:01:28.731Z,99.90
2023-04-03T01:03:56.276Z,99.90
2023-04-03T01:06:26.593Z,99.90
2023-04-03T01:08:54.133Z,99.90
2023-04-03T01:11:21.697Z,99.90
2023-04-03T01:13:49.243Z,99.90
2023-04-03T01:16:16.868Z,99.90
2023-04-03T01:18:44.325Z,99.90
2023-04-03T01:21:29.712Z,99.90
2023-04-03T01:24:11.540Z,99.90
2023-04-03T01:26:39.077Z,99.90
2023-04-03T01:29:06.592Z,99.90
2023-04-03T01:31:36.893Z,99.90
2023-04-03T01:34:04.394Z,99.90
2023-04-03T01:36:31.914Z,99.90
2023-04-03T01:38:59.509Z,99.90
2023-04-03T01:41:27.004Z,99.90
2023-04-03T01:43:54.550Z,99.90
2023-04-03T01:46:22.134Z,99.90
2023-04-03T01:48:49.684Z,99.90
2023-04-03T01:51:17.213Z,99.90
2023-04-03T01:53:44.782Z,99.90
2023-04-03T01:56:12.310Z,99.90
2023-04-03T01:58:39.854Z,99.90
2023-04-03T02:01:07.468Z,99.90
2023-04-03T02:03:35.052Z,99.90
2023-04-03T02:06:02.551Z,99.90
2023-04-03T02:08:30.125Z,99.90
2023-04-03T02:10:57.616Z,99.90
2023-04-03T02:13:25.189Z,99.90
2023-04-03T02:15:52.760Z,99.90
2023-04-03T02:18:20.288Z,99.90
2023-04-03T02:20:47.830Z,99.90
2023-04-03T02:23:15.402Z,99.90
2023-04-03T02:25:42.944Z,99.90
2023-04-03T02:28:10.463Z,99.90
2023-04-03T02:30:38.162Z,99.90
2023-04-03T02:33:05.593Z,99.90
2023-04-03T02:35:33.106Z,99.90
2023-04-03T02:38:00.633Z,99.90
2023-04-03T02:40:28.166Z,99.90
2023-04-03T02:42:55.678Z,99.90
2023-04-03T02:45:23.255Z,99.90
2023-04-03T02:47:50.861Z,99.90
2023-04-03T02:50:18.351Z,99.90
2023-04-03T02:52:46.879Z,99.90
2023-04-03T02:55:14.420Z,99.90
2023-04-03T02:57:41.955Z,99.90
2023-04-03T03:00:10.418Z,99.90
2023-04-03T03:02:37.955Z,99.90
2023-04-03T03:05:05.556Z,99.90
2023-04-03T03:07:33.057Z,99.90
2023-04-03T03:10:00.602Z,99.90
2023-04-03T03:12:28.122Z,99.90
2023-04-03T03:14:55.976Z,99.90
2023-04-03T03:17:23.553Z,99.90
2023-04-03T03:19:51.034Z,99.90
2023-04-03T03:22:18.592Z,99.90
2023-04-03T03:24:46.344Z,99.90
2023-04-03T03:27:13.868Z,99.90
2023-04-03T03:29:41.433Z,99.90
2023-04-03T03:32:08.969Z,99.90
2023-04-03T03:34:36.492Z,99.90
2023-04-03T03:37:04.138Z,99.90
2023-04-03T03:39:31.658Z,99.90
2023-04-03T03:41:59.196Z,99.90
2023-04-03T03:44:26.759Z,99.90
2023-04-03T03:46:54.404Z,99.90
2023-04-03T03:49:21.817Z,99.90
2023-04-03T03:51:49.393Z,99.90
2023-04-03T03:54:16.913Z,99.90
2023-04-03T03:56:44.449Z,99.90
2023-04-03T03:59:12.037Z,99.90
2023-04-03T04:01:39.567Z,99.90
2023-04-03T04:04:07.136Z,99.90
2023-04-03T04:06:34.737Z,99.90
2023-04-03T04:09:02.262Z,99.90
2023-04-03T04:11:29.786Z,99.90
2023-04-03T04:13:57.885Z,99.90
2023-04-03T04:16:25.445Z,99.90
2023-04-03T04:18:52.944Z,99.90
2023-04-03T04:21:20.548Z,99.90
2023-04-03T04:23:48.072Z,99.90
2023-04-03T04:26:15.617Z,99.90
2023-04-03T04:28:43.153Z,99.90
2023-04-03T04:31:10.736Z,99.90
2023-04-03T04:33:38.229Z,99.90
2023-04-03T04:36:05.909Z,99.90
2023-04-03T04:38:33.355Z,99.90
2023-04-03T04:41:00.889Z,99.90
2023-04-03T04:43:28.562Z,99.90
2023-04-03T04:46:01.823Z,99.90
2023-04-03T04:48:31.460Z,99.90
2023-04-03T04:50:57.173Z,99.90
2023-04-03T04:53:24.721Z,99.90
2023-04-03T04:55:52.261Z,99.90
2023-04-03T04:58:19.858Z,99.90
2023-04-03T05:00:47.389Z,99.90
2023-04-03T05:03:14.908Z,99.90
2023-04-03T05:05:42.472Z,99.90
2023-04-03T05:08:10.003Z,99.90
2023-04-03T05:10:37.532Z,99.90
2023-04-03T05:13:05.107Z,99.90
2023-04-03T05:15:32.631Z,99.90
2023-04-03T05:18:00.251Z,99.90
2023-04-03T05:20:27.779Z,99.90
2023-04-03T05:22:55.301Z,99.90
2023-04-03T05:25:22.825Z,99.90
2023-04-03T05:27:50.416Z,99.90
2023-04-03T05:30:17.964Z,99.90
2023-04-03T05:32:45.547Z,99.90
2023-04-03T05:35:13.040Z,99.90
2023-04-03T05:37:40.643Z,99.90
2023-04-03T05:40:08.206Z,99.90
2023-04-03T05:42:35.717Z,99.90
2023-04-03T05:45:03.274Z,99.90
2023-04-03T05:47:30.862Z,99.90
2023-04-03T05:49:58.319Z,99.90
2023-04-03T05:52:28.605Z,99.90
2023-04-03T05:54:56.137Z,99.90
2023-04-03T05:57:23.690Z,99.90
2023-04-03T05:59:51.246Z,99.90
2023-04-03T06:02:21.564Z,99.90
2023-04-03T06:04:49.230Z,99.90
2023-04-03T06:07:16.735Z,99.90
2023-04-03T06:09:44.254Z,99.90
2023-04-03T06:12:11.781Z,99.90
2023-04-03T06:14:39.351Z,99.90
2023-04-03T06:17:06.903Z,99.90
2023-04-03T06:19:34.405Z,99.90
2023-04-03T06:22:01.968Z,99.90
2023-04-03T06:24:29.480Z,99.90
2023-04-03T06:26:57.023Z,99.90
2023-04-03T06:29:24.599Z,99.90
2023-04-03T06:31:52.134Z,99.90
2023-04-03T06:34:19.654Z,99.90
2023-04-03T06:36:47.279Z,99.90
2023-04-03T06:39:14.808Z,99.90
2023-04-03T06:41:42.515Z,99.90
2023-04-03T06:44:09.954Z,99.90
2023-04-03T06:46:37.503Z,99.90
2023-04-03T06:49:05.023Z,99.90
2023-04-03T06:51:32.617Z,99.90
2023-04-03T06:54:00.159Z,99.90
2023-04-03T06:56:27.689Z,99.90
2023-04-03T06:58:57.970Z,99.90
2023-04-03T07:01:25.575Z,99.90
2023-04-03T07:03:53.017Z,99.90
2023-04-03T07:06:20.582Z,99.90
2023-04-03T07:08:48.116Z,99.90
2023-04-03T07:11:15.637Z,99.90
2023-04-03T07:13:43.236Z,99.90
2023-04-03T07:16:10.772Z,99.90
2023-04-03T07:18:38.279Z,99.90
2023-04-03T07:21:05.918Z,99.90
2023-04-03T07:23:33.379Z,99.90
2023-04-03T07:26:00.911Z,99.90
2023-04-03T07:28:28.505Z,99.90
2023-04-03T07:30:56.032Z,99.90
2023-04-03T07:33:23.584Z,99.90
2023-04-03T07:35:51.225Z,99.90
2023-04-03T07:38:18.712Z,99.90
2023-04-03T07:40:49.160Z,99.90
2023-04-03T07:43:16.764Z,99.90
2023-04-03T07:45:44.336Z,99.90
2023-04-03T07:48:11.795Z,99.90
2023-04-03T07:50:39.359Z,99.90
2023-04-03T07:53:06.888Z,99.90
2023-04-03T07:55:35.090Z,99.90
2023-04-03T07:58:02.007Z,99.90
2023-04-03T08:00:29.530Z,99.90
2023-04-03T08:02:57.158Z,99.90
2023-04-03T08:05:24.635Z,99.90
2023-04-03T08:07:52.169Z,99.90
2023-04-03T08:10:19.725Z,99.90
2023-04-03T08:12:47.286Z,99.90
2023-04-03T08:15:14.823Z,99.90
2023-04-03T08:17:42.387Z,99.90
2023-04-03T08:20:10.477Z,99.90
2023-04-03T08:22:38.001Z,99.90
2023-04-03T08:25:05.532Z,99.90
2023-04-03T08:27:36.261Z,99.90
2023-04-03T08:30:03.787Z,99.90
2023-04-03T08:32:31.369Z,99.90
2023-04-03T08:34:58.889Z,99.90
2023-04-03T08:37:26.428Z,99.90
2023-04-03T08:39:53.951Z,99.90
2023-04-03T08:42:42.796Z,99.90
2023-04-03T08:45:12.302Z,99.90
2023-04-03T08:47:45.638Z,99.90
2023-04-03T08:50:13.669Z,99.90
2023-04-03T08:52:41.208Z,99.90
2023-04-03T08:55:08.730Z,99.80
2023-04-03T08:57:42.379Z,99.20
2023-04-03T09:00:15.683Z,99.10
2023-04-03T09:02:43.236Z,98.60
2023-04-03T09:05:16.545Z,98.70
2023-04-03T09:07:44.079Z,98.60
2023-04-03T09:10:11.602Z,98.20
2023-04-03T09:12:39.157Z,97.50
2023-04-03T09:15:35.503Z,97.50
2023-04-03T09:17:55.288Z,97.60
2023-04-03T09:20:28.667Z,97.60
2023-04-03T09:22:56.193Z,97.70
2023-04-03T09:25:26.401Z,97.80
2023-04-03T09:27:53.930Z,97.60
2023-04-03T09:30:23.887Z,97.10
2023-04-03T09:32:52.878Z,97.00
2023-04-03T09:35:44.141Z,96.60
2023-04-03T09:38:02.718Z,97.20
2023-04-03T09:40:32.951Z,97.50
2023-04-03T09:43:01.747Z,97.40
2023-04-03T09:45:28.060Z,97.50
2023-04-03T09:48:16.955Z,97.00
2023-04-03T09:50:58.851Z,96.90
2023-04-03T09:53:31.753Z,96.80
2023-04-03T09:55:59.287Z,96.00
2023-04-03T09:58:42.790Z,95.40
2023-04-03T10:01:00.182Z,94.80
2023-04-03T10:03:34.624Z,94.60
2023-04-03T10:06:00.755Z,94.50
2023-04-03T10:08:31.162Z,94.40
2023-04-03T10:11:10.552Z,94.70
2023-04-03T10:13:48.781Z,95.10
2023-04-03T10:16:11.161Z,94.70
2023-04-03T10:18:47.414Z,94.30
2023-04-03T10:21:32.824Z,93.50
2023-04-03T10:24:15.727Z,93.10
2023-04-03T10:26:55.311Z,92.20
2023-04-03T10:29:28.432Z,92.00
2023-04-03T10:32:01.404Z,91.70
2023-04-03T10:34:37.348Z,91.70
2023-04-03T10:37:19.749Z,91.80
2023-04-03T10:39:59.175Z,92.10
2023-04-03T10:42:29.740Z,91.10
2023-04-03T10:45:21.467Z,90.80
2023-04-03T10:48:09.693Z,90.20
2023-04-03T10:50:40.207Z,90.40
2023-04-03T10:53:31.420Z,89.60
2023-04-03T10:56:20.263Z,88.40
2023-04-03T10:58:50.689Z,88.40
2023-04-03T11:01:18.232Z,87.90
2023-04-03T11:03:45.904Z,87.90
2023-04-03T11:06:13.315Z,88.80
2023-04-03T11:08:43.888Z,87.50
2023-04-03T11:11:11.464Z,86.70
2023-04-03T11:13:44.808Z,86.30
2023-04-03T11:16:12.362Z,85.00
2023-04-03T11:18:43.314Z,85.30
2023-04-03T11:21:25.946Z,85.30
2023-04-03T11:23:53.516Z,85.30
2023-04-03T11:26:21.056Z,83.50
2023-04-03T11:28:48.589Z,83.30
2023-04-03T11:31:43.220Z,80.40
2023-04-03T11:34:16.788Z,78.90
2023-04-03T11:36:53.316Z,78.30
2023-04-03T11:39:32.759Z,79.20
2023-04-03T11:42:21.018Z,79.30
2023-04-03T11:44:48.522Z,79.00
2023-04-03T11:47:16.065Z,78.40
2023-04-03T11:49:58.486Z,78.00
2023-04-03T11:52:43.818Z,78.00
2023-04-03T11:55:23.699Z,77.80
2023-04-03T11:58:00.289Z,77.70
2023-04-03T12:00:46.065Z,76.80
2023-04-03T12:03:28.264Z,76.30
2023-04-03T12:06:08.352Z,76.10
2023-04-03T12:08:41.311Z,76.80
2023-04-03T12:11:14.664Z,75.40
2023-04-03T12:13:53.428Z,75.10
2023-04-03T12:16:21.564Z,75.20
2023-04-03T12:18:54.788Z,75.50
2023-04-03T12:21:22.315Z,75.40
2023-04-03T12:24:10.691Z,74.40
2023-04-03T12:26:47.591Z,73.60
2023-04-03T12:29:43.875Z,72.90
2023-04-03T12:32:27.822Z,71.50
2023-04-03T12:35:25.924Z,71.60
2023-04-03T12:37:56.344Z,71.00
2023-04-03T12:40:42.001Z,71.10
2023-04-03T12:43:33.217Z,71.50
2023-04-03T12:46:06.900Z,72.10
2023-04-03T12:48:40.186Z,71.30
2023-04-03T12:51:07.731Z,71.10
2023-04-03T12:53:35.533Z,70.90
2023-04-03T12:56:21.442Z,70.50
2023-04-03T12:58:49.042Z,69.30
2023-04-03T13:01:16.571Z,69.90
2023-04-03T13:03:44.205Z,69.30
2023-04-03T13:06:20.417Z,69.40
2023-04-03T13:08:56.330Z,69.60
2023-04-03T13:11:23.868Z,70.00
2023-04-03T13:13:57.337Z,69.20
2023-04-03T13:16:24.896Z,68.60
2023-04-03T13:18:52.404Z,68.50
2023-04-03T13:21:20.247Z,67.50
2023-04-03T13:23:47.794Z,66.10
2023-04-03T13:26:15.338Z,65.50
2023-04-03T13:28:42.908Z,66.30
2023-04-03T13:31:13.373Z,66.30
2023-04-03T13:33:40.849Z,66.50
2023-04-03T13:36:11.327Z,66.50
2023-04-03T13:38:38.830Z,66.70
2023-04-03T13:41:06.386Z,64.80
2023-04-03T13:43:33.945Z,64.30
2023-04-03T13:46:07.073Z,65.10
2023-04-03T13:48:43.450Z,65.40
2023-04-03T13:51:13.632Z,65.70
2023-04-03T13:53:43.877Z,63.70
2023-04-03T13:56:11.464Z,61.20
2023-04-03T13:58:38.982Z,60.60
2023-04-03T14:01:12.220Z,60.70
2023-04-03T14:03:39.793Z,61.20
2023-04-03T14:06:07.307Z,61.70
2023-04-03T14:08:42.944Z,61.90
2023-04-03T14:11:02.486Z,61.50
2023-04-03T14:13:32.667Z,61.20
2023-04-03T14:16:08.934Z,60.40
2023-04-03T14:18:27.786Z,59.80
2023-04-03T14:20:55.322Z,59.50
2023-04-03T14:23:22.866Z,59.80
2023-04-03T14:25:50.428Z,60.30
2023-04-03T14:28:20.967Z,59.80
2023-04-03T14:30:48.503Z,60.00
2023-04-03T14:33:16.086Z,60.10
2023-04-03T14:35:43.652Z,60.50
2023-04-03T14:38:16.908Z,59.60
2023-04-03T14:40:44.458Z,59.60
2023-04-03T14:43:11.984Z,59.40
2023-04-03T14:45:39.519Z,59.30
2023-04-03T14:48:07.097Z,59.90
2023-04-03T14:50:34.620Z,59.50
2023-04-03T14:53:02.178Z,59.10
2023-04-03T14:55:29.737Z,59.60
2023-04-03T14:57:57.289Z,59.20
2023-04-03T15:00:24.830Z,58.80
2023-04-03T15:02:52.469Z,58.30
2023-04-03T15:05:19.928Z,58.20
2023-04-03T15:07:50.278Z,58.50
2023-04-03T15:10:20.596Z,58.60
2023-04-03T15:12:48.122Z,59.50
2023-04-03T15:15:15.642Z,58.70
2023-04-03T15:17:43.215Z,58.20
2023-04-03T15:20:16.680Z,58.20
2023-04-03T15:22:44.222Z,58.60
2023-04-03T15:25:11.808Z,58.20
2023-04-03T15:27:39.355Z,59.00
2023-04-03T15:30:06.875Z,58.50
2023-04-03T15:32:34.481Z,57.90
2023-04-03T15:35:01.996Z,57.80
2023-04-03T15:37:29.528Z,57.30
2023-04-03T15:39:57.129Z,56.40
2023-04-03T15:42:24.645Z,55.70
2023-04-03T15:44:52.173Z,56.40
2023-04-03T15:47:19.777Z,56.40
2023-04-03T15:49:47.302Z,55.50
2023-04-03T15:52:14.832Z,55.50
2023-04-03T15:54:42.407Z,55.40
2023-04-03T15:57:10.013Z,55.50
2023-04-03T15:59:37.487Z,55.60
2023-04-03T16:02:05.079Z,54.90
2023-04-03T16:04:32.593Z,53.90
2023-04-03T16:07:00.129Z,54.00
2023-04-03T16:09:27.695Z,54.50
2023-04-03T16:11:55.233Z,54.70
2023-04-03T16:14:22.757Z,55.00
2023-04-03T16:16:50.326Z,54.50
2023-04-03T16:19:17.853Z,52.90
2023-04-03T16:21:45.390Z,52.20
2023-04-03T16:24:13.615Z,52.70
2023-04-03T16:26:40.503Z,53.10
2023-04-03T16:29:08.032Z,53.50
2023-04-03T16:31:35.697Z,53.70
2023-04-03T16:34:03.134Z,53.60
2023-04-03T16:36:30.720Z,53.40
2023-04-03T16:38:58.246Z,52.90
2023-04-03T16:41:25.766Z,53.00
2023-04-03T16:43:53.300Z,52.60
2023-04-03T16:46:20.878Z,52.50
2023-04-03T16:48:48.380Z,52.80
2023-04-03T16:51:15.957Z,52.90
2023-04-03T16:53:43.556Z,52.70
2023-04-03T16:56:11.096Z,52.60
2023-04-03T16:58:38.628Z,52.40
2023-04-03T17:01:11.939Z,52.50
2023-04-03T17:03:39.475Z,51.30
2023-04-03T17:06:06.969Z,51.20
2023-04-03T17:08:34.602Z,51.60
2023-04-03T17:11:02.128Z,52.10
2023-04-03T17:13:29.671Z,52.10
2023-04-03T17:15:57.268Z,52.10
2023-04-03T17:18:24.796Z,52.60
2023-04-03T17:20:52.331Z,54.00
2023-04-03T17:23:19.905Z,54.20
2023-04-03T17:25:47.438Z,54.50
2023-04-03T17:28:14.968Z,54.80
2023-04-03T17:30:42.794Z,55.00
2023-04-03T17:33:10.370Z,55.10
2023-04-03T17:35:38.040Z,55.40
2023-04-03T17:38:05.401Z,55.90
2023-04-03T17:40:32.930Z,55.80
2023-04-03T17:43:00.450Z,55.90
2023-04-03T17:45:28.046Z,56.10
2023-04-03T17:47:55.587Z,56.50
2023-04-03T17:50:23.090Z,56.80
2023-04-03T17:52:50.913Z,57.20
2023-04-03T17:55:18.439Z,57.40
2023-04-03T17:57:45.960Z,57.60
2023-04-03T18:00:13.610Z,57.90
2023-04-03T18:02:41.156Z,58.70
2023-04-03T18:05:08.642Z,58.20
2023-04-03T18:07:36.225Z,58.30
2023-04-03T18:10:03.756Z,58.30
2023-04-03T18:12:33.743Z,58.30
2023-04-03T18:15:01.314Z,58.50
2023-04-03T18:17:28.884Z,59.30
2023-04-03T18:19:56.357Z,58.80
2023-04-03T18:22:23.914Z,59.00
2023-04-03T18:24:51.458Z,60.10
2023-04-03T18:27:18.984Z,59.40
2023-04-03T18:29:46.578Z,59.60
2023-04-03T18:32:14.091Z,59.90
2023-04-03T18:34:41.623Z,60.00
2023-04-03T18:37:09.205Z,60.50
2023-04-03T18:39:36.753Z,60.60
2023-04-03T18:42:04.271Z,61.30
2023-04-03T18:44:31.855Z,60.90
2023-04-03T18:46:59.386Z,61.20
2023-04-03T18:49:29.307Z,61.40
2023-04-03T18:51:56.917Z,61.80
2023-04-03T18:54:24.438Z,62.20
2023-04-03T18:56:51.964Z,62.40
2023-04-03T18:59:19.571Z,62.90
2023-04-03T19:01:47.062Z,63.20
2023-04-03T19:04:14.601Z,63.40
2023-04-03T19:06:42.165Z,64.30
2023-04-03T19:09:09.696Z,64.60
2023-04-03T19:11:37.241Z,64.80
2023-04-03T19:14:16.216Z,64.80
2023-04-03T19:16:32.359Z,65.10
2023-04-03T19:18:59.873Z,65.40
2023-04-03T19:21:27.426Z,65.50
2023-04-03T19:23:54.953Z,65.70
2023-04-03T19:26:22.477Z,65.90
2023-04-03T19:28:50.009Z,66.10
2023-04-03T19:31:17.576Z,66.30
2023-04-03T19:33:45.095Z,66.50
2023-04-03T19:36:12.640Z,66.70
2023-04-03T19:38:40.197Z,66.80
2023-04-03T19:41:07.720Z,66.90
2023-04-03T19:43:35.289Z,67.10
2023-04-03T19:46:02.849Z,67.30
2023-04-03T19:48:30.318Z,67.70
2023-04-03T19:50:57.868Z,67.80
2023-04-03T19:53:25.412Z,68.00
2023-04-03T19:55:52.955Z,68.30
2023-04-03T19:58:20.541Z,68.40
2023-04-03T20:00:48.079Z,68.50
2023-04-03T20:03:15.616Z,68.70
2023-04-03T20:05:43.179Z,68.10
2023-04-03T20:08:10.724Z,68.30
2023-04-03T20:10:38.375Z,68.40
2023-04-03T20:13:05.816Z,67.60
2023-04-03T20:15:33.340Z,67.20
2023-04-03T20:18:00.909Z,67.00
2023-04-03T20:20:28.515Z,67.80
2023-04-03T20:22:56.032Z,68.60
2023-04-03T20:25:43.815Z,68.40
2023-04-03T20:27:51.121Z,68.10
2023-04-03T20:30:18.651Z,68.50
2023-04-03T20:32:46.237Z,69.00
2023-04-03T20:35:13.736Z,68.80
2023-04-03T20:37:41.304Z,69.10
2023-04-03T20:40:08.930Z,69.50
2023-04-03T20:42:36.487Z,69.80
2023-04-03T20:45:04.877Z,70.10
2023-04-03T20:47:31.661Z,71.30
2023-04-03T20:49:59.148Z,70.60
2023-04-03T20:52:26.664Z,70.80
2023-04-03T20:54:54.183Z,71.10
2023-04-03T20:57:21.749Z,71.70
2023-04-03T20:59:49.286Z,71.70
2023-04-03T21:02:16.811Z,71.70
2023-04-03T21:04:44.379Z,71.80
2023-04-03T21:07:48.718Z,72.00
2023-04-03T21:10:53.038Z,71.60
2023-04-03T21:13:57.104Z,72.00
2023-04-03T21:16:24.217Z,72.10
2023-04-03T21:19:09.512Z,71.80
2023-04-03T21:21:37.177Z,72.00
2023-04-03T21:24:07.270Z,72.30
2023-04-03T21:26:34.808Z,72.70
2023-04-03T21:29:03.089Z,72.90
2023-04-03T21:31:48.630Z,73.20
2023-04-03T21:34:16.452Z,73.40
2023-04-03T21:36:46.852Z,73.70
2023-04-03T21:39:14.373Z,73.90
2023-04-03T21:41:41.967Z,74.20
2023-04-03T21:44:09.523Z,74.70
2023-04-03T21:46:37.113Z,74.90
2023-04-03T21:49:04.611Z,75.20
2023-04-03T21:51:32.134Z,75.40
2023-04-03T21:53:59.659Z,75.80
2023-04-03T21:56:27.250Z,75.80
2023-04-03T21:58:54.904Z,76.20
2023-04-03T22:01:22.309Z,76.40
2023-04-03T22:03:50.618Z,76.40
2023-04-03T22:06:18.134Z,76.40
2023-04-03T22:08:45.674Z,77.00
2023-04-03T22:11:13.242Z,77.10
2023-04-03T22:13:40.773Z,76.40
2023-04-03T22:16:08.357Z,77.30
2023-04-03T22:18:35.889Z,76.70
2023-04-03T22:21:03.470Z,77.00
2023-04-03T22:23:31.001Z,77.00
2023-04-03T22:25:58.655Z,76.30
2023-04-03T22:28:26.241Z,76.60
2023-04-03T22:30:53.770Z,76.70
2023-04-03T22:33:21.294Z,76.20
2023-04-03T22:35:48.851Z,76.40
2023-04-03T22:38:16.433Z,76.70
2023-04-03T22:40:43.956Z,77.10
2023-04-03T22:43:11.494Z,77.40
2023-04-03T22:45:47.904Z,77.50
2023-04-03T22:48:15.412Z,77.60
2023-04-03T22:50:43.193Z,77.90
2023-04-03T22:53:10.789Z,78.10
2023-04-03T22:55:38.302Z,78.30
2023-04-03T22:58:05.805Z,78.40
2023-04-03T23:00:33.370Z,78.70
2023-04-03T23:03:00.930Z,78.50
2023-04-03T23:05:28.430Z,78.60
2023-04-03T23:07:55.994Z,78.80
2023-04-03T23:10:23.560Z,78.90
2023-04-03T23:12:51.084Z,78.90
2023-04-03T23:15:18.611Z,79.00
2023-04-03T23:17:46.221Z,79.00
2023-04-03T23:20:13.707Z,79.00
2023-04-03T23:22:41.246Z,78.40
2023-04-03T23:25:09.563Z,78.50
2023-04-03T23:27:37.121Z,78.70
2023-04-03T23:30:04.648Z,78.90
2023-04-03T23:32:32.468Z,79.00
2023-04-03T23:35:00.019Z,79.20
2023-04-03T23:37:27.535Z,79.40
2023-04-03T23:39:55.841Z,79.70
2023-04-03T23:42:23.354Z,79.50
2023-04-03T23:44:50.880Z,79.70
2023-04-03T23:47:18.454Z,80.70
2023-04-03T23:49:45.982Z,80.20
2023-04-03T23:52:13.535Z,80.40
2023-04-03T23:54:41.115Z,80.90
2023-04-03T23:57:08.634Z,80.40
2023-04-03T23:59:36.166Z,80.60
